sensor_id;sensor_type;location;lat;lon;timestamp;pressure;altitude;pressure_sealevel;temperature;humidity
69570;BME280;56781;42.292;23.146;2023-09-07T00:02:13;95854.81;;;19.15;94.92
69570;BME280;56781;42.292;23.146;2023-09-07T00:04:41;95840.34;;;19.11;94.66
69570;BME280;56781;42.292;23.146;2023-09-07T00:07:10;95852.31;;;19.22;94.60
69570;BME280;56781;42.292;23.146;2023-09-07T00:09:37;95834.38;;;19.05;93.97
69570;BME280;56781;42.292;23.146;2023-09-07T00:12:04;95841.69;;;19.17;94.08
69570;BME280;56781;42.292;23.146;2023-09-07T00:14:31;95844.84;;;19.19;93.98
69570;BME280;56781;42.292;23.146;2023-09-07T00:16:59;95842.81;;;19.16;93.84
69570;BME280;56781;42.292;23.146;2023-09-07T00:19:26;95825.66;;;19.12;94.23
69570;BME280;56781;42.292;23.146;2023-09-07T00:21:54;95836.53;;;19.12;94.42
69570;BME280;56781;42.292;23.146;2023-09-07T00:24:21;95862.63;;;19.16;94.19
69570;BME280;56781;42.292;23.146;2023-09-07T00:26:49;95839.41;;;19.19;94.00
69570;BME280;56781;42.292;23.146;2023-09-07T00:29:17;95838.63;;;19.18;93.71
69570;BME280;56781;42.292;23.146;2023-09-07T00:31:44;95832.66;;;19.13;94.36
69570;BME280;56781;42.292;23.146;2023-09-07T00:34:11;95841.25;;;19.15;94.46
69570;BME280;56781;42.292;23.146;2023-09-07T00:36:38;95825.22;;;19.10;95.43
69570;BME280;56781;42.292;23.146;2023-09-07T00:39:05;95824.84;;;18.95;95.67
69570;BME280;56781;42.292;23.146;2023-09-07T00:41:32;95838.44;;;19.11;95.56
69570;BME280;56781;42.292;23.146;2023-09-07T00:43:59;95840.72;;;19.09;96.16
69570;BME280;56781;42.292;23.146;2023-09-07T00:46:26;95820.97;;;18.96;95.83
69570;BME280;56781;42.292;23.146;2023-09-07T00:48:54;95821.34;;;18.95;96.46
69570;BME280;56781;42.292;23.146;2023-09-07T00:51:21;95842.44;;;19.01;96.71
69570;BME280;56781;42.292;23.146;2023-09-07T00:53:49;95840.75;;;18.97;96.54
69570;BME280;56781;42.292;23.146;2023-09-07T00:56:16;95838.84;;;18.97;96.38
69570;BME280;56781;42.292;23.146;2023-09-07T00:58:43;95837.38;;;19.00;96.97
69570;BME280;56781;42.292;23.146;2023-09-07T01:01:10;95842.09;;;19.03;96.24
69570;BME280;56781;42.292;23.146;2023-09-07T01:03:38;95832.50;;;19.06;96.17
69570;BME280;56781;42.292;23.146;2023-09-07T01:06:15;95811.28;;;18.95;95.96
69570;BME280;56781;42.292;23.146;2023-09-07T01:08:51;95824.34;;;19.06;96.34
69570;BME280;56781;42.292;23.146;2023-09-07T01:11:23;95809.25;;;18.92;96.74
69570;BME280;56781;42.292;23.146;2023-09-07T01:13:50;95813.22;;;18.95;96.96
69570;BME280;56781;42.292;23.146;2023-09-07T01:16:22;95810.25;;;19.00;96.46
69570;BME280;56781;42.292;23.146;2023-09-07T01:18:51;95798.03;;;18.94;96.32
69570;BME280;56781;42.292;23.146;2023-09-07T01:21:18;95805.47;;;18.97;96.18
69570;BME280;56781;42.292;23.146;2023-09-07T01:23:46;95799.47;;;19.03;96.30
69570;BME280;56781;42.292;23.146;2023-09-07T01:26:14;95805.69;;;19.04;95.93
69570;BME280;56781;42.292;23.146;2023-09-07T01:28:41;95811.91;;;19.04;95.13
69570;BME280;56781;42.292;23.146;2023-09-07T01:31:08;95813.50;;;19.06;95.53
69570;BME280;56781;42.292;23.146;2023-09-07T01:33:36;95818.91;;;19.06;95.48
69570;BME280;56781;42.292;23.146;2023-09-07T01:36:04;95815.47;;;18.93;95.88
69570;BME280;56781;42.292;23.146;2023-09-07T01:38:31;95817.31;;;19.04;96.17
69570;BME280;56781;42.292;23.146;2023-09-07T01:40:59;95813.50;;;19.06;96.53
69570;BME280;56781;42.292;23.146;2023-09-07T01:43:26;95800.75;;;18.94;96.70
69570;BME280;56781;42.292;23.146;2023-09-07T01:45:53;95819.50;;;18.99;97.35
69570;BME280;56781;42.292;23.146;2023-09-07T01:48:20;95827.19;;;18.97;97.37
69570;BME280;56781;42.292;23.146;2023-09-07T01:50:47;95827.09;;;18.93;98.74
69570;BME280;56781;42.292;23.146;2023-09-07T01:53:18;95830.59;;;18.94;98.93
69570;BME280;56781;42.292;23.146;2023-09-07T01:55:45;95804.44;;;18.73;99.87
69570;BME280;56781;42.292;23.146;2023-09-07T01:58:12;95833.00;;;18.83;100.00
69570;BME280;56781;42.292;23.146;2023-09-07T02:00:40;95824.22;;;18.74;100.00
69570;BME280;56781;42.292;23.146;2023-09-07T02:03:07;95819.28;;;18.76;100.00
69570;BME280;56781;42.292;23.146;2023-09-07T02:05:34;95831.25;;;18.75;100.00
69570;BME280;56781;42.292;23.146;2023-09-07T02:08:01;95850.88;;;18.72;100.00
69570;BME280;56781;42.292;23.146;2023-09-07T02:10:29;95829.72;;;18.49;100.00
69570;BME280;56781;42.292;23.146;2023-09-07T02:12:57;95843.88;;;18.30;100.00
69570;BME280;56781;42.292;23.146;2023-09-07T02:15:24;95845.34;;;18.15;100.00
69570;BME280;56781;42.292;23.146;2023-09-07T02:17:51;95848.63;;;18.09;100.00
69570;BME280;56781;42.292;23.146;2023-09-07T02:20:19;95852.16;;;17.97;100.00
69570;BME280;56781;42.292;23.146;2023-09-07T02:22:47;95832.50;;;17.88;100.00
69570;BME280;56781;42.292;23.146;2023-09-07T02:25:14;95833.97;;;17.85;100.00
69570;BME280;56781;42.292;23.146;2023-09-07T02:27:42;95842.44;;;17.84;100.00
69570;BME280;56781;42.292;23.146;2023-09-07T02:30:09;95855.06;;;17.80;100.00
69570;BME280;56781;42.292;23.146;2023-09-07T02:32:37;95855.97;;;17.84;100.00
69570;BME280;56781;42.292;23.146;2023-09-07T02:35:04;95854.84;;;17.85;100.00
69570;BME280;56781;42.292;23.146;2023-09-07T02:37:31;95831.09;;;17.69;100.00
69570;BME280;56781;42.292;23.146;2023-09-07T02:39:58;95852.53;;;17.75;100.00
69570;BME280;56781;42.292;23.146;2023-09-07T02:42:26;95868.13;;;17.65;100.00
69570;BME280;56781;42.292;23.146;2023-09-07T02:44:53;95842.94;;;17.40;100.00
69570;BME280;56781;42.292;23.146;2023-09-07T02:47:20;95860.06;;;17.44;100.00
69570;BME280;56781;42.292;23.146;2023-09-07T02:49:48;95853.81;;;17.32;100.00
69570;BME280;56781;42.292;23.146;2023-09-07T02:52:15;95863.84;;;17.31;100.00
69570;BME280;56781;42.292;23.146;2023-09-07T02:54:42;95852.44;;;17.13;100.00
69570;BME280;56781;42.292;23.146;2023-09-07T02:57:09;95864.03;;;17.14;100.00
69570;BME280;56781;42.292;23.146;2023-09-07T02:59:36;95870.91;;;17.11;100.00
69570;BME280;56781;42.292;23.146;2023-09-07T03:02:03;95860.84;;;16.99;100.00
69570;BME280;56781;42.292;23.146;2023-09-07T03:04:31;95867.94;;;17.04;100.00
69570;BME280;56781;42.292;23.146;2023-09-07T03:07:00;95863.66;;;17.03;100.00
69570;BME280;56781;42.292;23.146;2023-09-07T03:09:28;95876.25;;;16.99;100.00
69570;BME280;56781;42.292;23.146;2023-09-07T03:11:55;95883.84;;;17.05;100.00
69570;BME280;56781;42.292;23.146;2023-09-07T03:14:22;95869.19;;;17.06;100.00
69570;BME280;56781;42.292;23.146;2023-09-07T03:16:51;95890.16;;;17.10;100.00
69570;BME280;56781;42.292;23.146;2023-09-07T03:19:19;95894.78;;;17.09;100.00
69570;BME280;56781;42.292;23.146;2023-09-07T03:21:46;95887.03;;;17.08;100.00
69570;BME280;56781;42.292;23.146;2023-09-07T03:24:13;95865.44;;;16.99;100.00
69570;BME280;56781;42.292;23.146;2023-09-07T03:26:42;95861.56;;;16.88;100.00
69570;BME280;56781;42.292;23.146;2023-09-07T03:29:10;95859.53;;;16.84;100.00
69570;BME280;56781;42.292;23.146;2023-09-07T03:31:37;95866.31;;;16.91;100.00
69570;BME280;56781;42.292;23.146;2023-09-07T03:34:04;95877.91;;;17.12;100.00
69570;BME280;56781;42.292;23.146;2023-09-07T03:36:32;95871.97;;;17.19;100.00
69570;BME280;56781;42.292;23.146;2023-09-07T03:38:59;95863.97;;;17.22;100.00
69570;BME280;56781;42.292;23.146;2023-09-07T03:41:27;95871.56;;;17.41;100.00
69570;BME280;56781;42.292;23.146;2023-09-07T03:43:57;95860.16;;;17.36;100.00
69570;BME280;56781;42.292;23.146;2023-09-07T03:46:25;95859.16;;;17.40;100.00
69570;BME280;56781;42.292;23.146;2023-09-07T03:48:53;95860.72;;;17.41;100.00
69570;BME280;56781;42.292;23.146;2023-09-07T03:51:20;95844.47;;;17.29;100.00
69570;BME280;56781;42.292;23.146;2023-09-07T03:53:47;95858.59;;;17.47;100.00
69570;BME280;56781;42.292;23.146;2023-09-07T03:56:14;95856.81;;;17.51;100.00
69570;BME280;56781;42.292;23.146;2023-09-07T03:58:41;95856.16;;;17.54;100.00
69570;BME280;56781;42.292;23.146;2023-09-07T04:01:08;95847.78;;;17.47;100.00
69570;BME280;56781;42.292;23.146;2023-09-07T04:03:36;95848.44;;;17.44;100.00
69570;BME280;56781;42.292;23.146;2023-09-07T04:06:03;95857.81;;;17.59;100.00
69570;BME280;56781;42.292;23.146;2023-09-07T04:08:32;95839.69;;;17.59;100.00
69570;BME280;56781;42.292;23.146;2023-09-07T04:11:04;95858.84;;;17.66;100.00
69570;BME280;56781;42.292;23.146;2023-09-07T04:13:32;95851.88;;;17.65;100.00
69570;BME280;56781;42.292;23.146;2023-09-07T04:15:59;95855.94;;;17.71;100.00
69570;BME280;56781;42.292;23.146;2023-09-07T04:18:26;95835.53;;;17.62;100.00
69570;BME280;56781;42.292;23.146;2023-09-07T04:21:04;95841.94;;;17.69;100.00
69570;BME280;56781;42.292;23.146;2023-09-07T04:23:32;95830.09;;;17.62;100.00
69570;BME280;56781;42.292;23.146;2023-09-07T04:26:09;95846.34;;;17.74;100.00
69570;BME280;56781;42.292;23.146;2023-09-07T04:28:37;95844.69;;;17.82;100.00
69570;BME280;56781;42.292;23.146;2023-09-07T04:31:05;95841.19;;;17.81;100.00
69570;BME280;56781;42.292;23.146;2023-09-07T04:33:33;95841.41;;;17.88;100.00
69570;BME280;56781;42.292;23.146;2023-09-07T04:36:08;95853.81;;;18.02;100.00
69570;BME280;56781;42.292;23.146;2023-09-07T04:38:35;95851.94;;;18.02;100.00
69570;BME280;56781;42.292;23.146;2023-09-07T04:41:07;95856.44;;;18.10;100.00
69570;BME280;56781;42.292;23.146;2023-09-07T04:43:35;95863.97;;;18.17;100.00
69570;BME280;56781;42.292;23.146;2023-09-07T04:46:03;95858.78;;;18.24;100.00
69570;BME280;56781;42.292;23.146;2023-09-07T04:48:30;95874.56;;;18.34;100.00
69570;BME280;56781;42.292;23.146;2023-09-07T04:51:01;95864.31;;;18.28;100.00
69570;BME280;56781;42.292;23.146;2023-09-07T04:53:34;95858.91;;;18.28;100.00
69570;BME280;56781;42.292;23.146;2023-09-07T04:56:03;95879.41;;;18.53;100.00
69570;BME280;56781;42.292;23.146;2023-09-07T04:58:30;95871.63;;;18.52;100.00
69570;BME280;56781;42.292;23.146;2023-09-07T05:01:05;95874.97;;;18.61;100.00
69570;BME280;56781;42.292;23.146;2023-09-07T05:03:33;95894.16;;;18.80;100.00
69570;BME280;56781;42.292;23.146;2023-09-07T05:06:01;95888.41;;;18.82;99.84
69570;BME280;56781;42.292;23.146;2023-09-07T05:08:30;95889.75;;;18.88;99.41
69570;BME280;56781;42.292;23.146;2023-09-07T05:11:00;95901.13;;;19.06;96.38
69570;BME280;56781;42.292;23.146;2023-09-07T05:13:29;95896.84;;;19.21;96.57
69570;BME280;56781;42.292;23.146;2023-09-07T05:15:58;95914.50;;;19.43;91.32
69570;BME280;56781;42.292;23.146;2023-09-07T05:18:26;95893.06;;;19.54;89.16
69570;BME280;56781;42.292;23.146;2023-09-07T05:20:54;95910.22;;;19.70;87.94
69570;BME280;56781;42.292;23.146;2023-09-07T05:23:22;95908.56;;;19.81;87.04
69570;BME280;56781;42.292;23.146;2023-09-07T05:25:51;95899.88;;;19.76;84.06
69570;BME280;56781;42.292;23.146;2023-09-07T05:28:22;95883.81;;;19.55;84.33
69570;BME280;56781;42.292;23.146;2023-09-07T05:30:49;95888.34;;;19.51;85.47
69570;BME280;56781;42.292;23.146;2023-09-07T05:33:17;95892.22;;;19.49;86.37
69570;BME280;56781;42.292;23.146;2023-09-07T05:35:45;95898.75;;;19.48;86.06
69570;BME280;56781;42.292;23.146;2023-09-07T05:38:13;95891.50;;;19.53;86.14
69570;BME280;56781;42.292;23.146;2023-09-07T05:40:42;95898.94;;;19.56;85.65
69570;BME280;56781;42.292;23.146;2023-09-07T05:43:10;95881.09;;;19.55;87.04
69570;BME280;56781;42.292;23.146;2023-09-07T05:45:40;95882.22;;;19.54;85.83
69570;BME280;56781;42.292;23.146;2023-09-07T05:48:08;95894.34;;;19.72;85.57
69570;BME280;56781;42.292;23.146;2023-09-07T05:50:36;95883.41;;;19.84;84.56
69570;BME280;56781;42.292;23.146;2023-09-07T05:53:04;95903.56;;;20.15;83.06
69570;BME280;56781;42.292;23.146;2023-09-07T05:55:32;95906.16;;;20.43;81.48
69570;BME280;56781;42.292;23.146;2023-09-07T05:57:59;95899.06;;;20.54;82.04
69570;BME280;56781;42.292;23.146;2023-09-07T06:00:30;95894.00;;;20.72;80.94
69570;BME280;56781;42.292;23.146;2023-09-07T06:02:57;95894.31;;;20.87;80.32
69570;BME280;56781;42.292;23.146;2023-09-07T06:05:25;95903.13;;;20.99;77.58
69570;BME280;56781;42.292;23.146;2023-09-07T06:07:52;95890.03;;;20.86;78.31
69570;BME280;56781;42.292;23.146;2023-09-07T06:10:19;95906.56;;;20.96;78.86
69570;BME280;56781;42.292;23.146;2023-09-07T06:12:46;95886.69;;;20.57;78.89
69570;BME280;56781;42.292;23.146;2023-09-07T06:15:13;95904.16;;;20.56;78.26
69570;BME280;56781;42.292;23.146;2023-09-07T06:17:40;95888.63;;;20.41;79.45
69570;BME280;56781;42.292;23.146;2023-09-07T06:20:08;95891.94;;;20.50;80.87
69570;BME280;56781;42.292;23.146;2023-09-07T06:22:35;95888.50;;;20.53;80.79
69570;BME280;56781;42.292;23.146;2023-09-07T06:25:03;95887.84;;;20.75;79.69
69570;BME280;56781;42.292;23.146;2023-09-07T06:27:30;95874.47;;;20.86;77.77
69570;BME280;56781;42.292;23.146;2023-09-07T06:29:57;95887.44;;;21.12;78.08
69570;BME280;56781;42.292;23.146;2023-09-07T06:32:24;95884.72;;;21.12;78.62
69570;BME280;56781;42.292;23.146;2023-09-07T06:34:51;95895.75;;;21.19;77.69
69570;BME280;56781;42.292;23.146;2023-09-07T06:37:18;95904.84;;;21.27;77.13
69570;BME280;56781;42.292;23.146;2023-09-07T06:39:45;95899.91;;;21.13;77.73
69570;BME280;56781;42.292;23.146;2023-09-07T06:42:13;95908.22;;;21.20;77.31
69570;BME280;56781;42.292;23.146;2023-09-07T06:44:42;95890.59;;;21.53;75.27
69570;BME280;56781;42.292;23.146;2023-09-07T06:47:09;95891.75;;;21.98;73.10
69570;BME280;56781;42.292;23.146;2023-09-07T06:49:39;95881.28;;;22.00;73.83
69570;BME280;56781;42.292;23.146;2023-09-07T06:52:06;95893.81;;;22.28;73.09
69570;BME280;56781;42.292;23.146;2023-09-07T06:54:34;95885.75;;;22.62;73.48
69570;BME280;56781;42.292;23.146;2023-09-07T06:57:01;95888.97;;;22.71;70.20
69570;BME280;56781;42.292;23.146;2023-09-07T06:59:28;95881.75;;;22.29;70.72
69570;BME280;56781;42.292;23.146;2023-09-07T07:01:55;95880.91;;;22.25;72.76
69570;BME280;56781;42.292;23.146;2023-09-07T07:04:23;95893.44;;;22.29;72.25
69570;BME280;56781;42.292;23.146;2023-09-07T07:06:50;95895.09;;;22.34;71.50
69570;BME280;56781;42.292;23.146;2023-09-07T07:09:17;95880.16;;;22.28;71.50
69570;BME280;56781;42.292;23.146;2023-09-07T07:11:45;95900.59;;;22.38;70.40
69570;BME280;56781;42.292;23.146;2023-09-07T07:14:12;95901.91;;;22.21;69.38
69570;BME280;56781;42.292;23.146;2023-09-07T07:16:39;95910.66;;;22.33;71.59
69570;BME280;56781;42.292;23.146;2023-09-07T07:19:06;95908.06;;;22.18;71.16
69570;BME280;56781;42.292;23.146;2023-09-07T07:21:33;95901.81;;;22.40;68.98
69570;BME280;56781;42.292;23.146;2023-09-07T07:24:00;95907.94;;;22.60;69.18
69570;BME280;56781;42.292;23.146;2023-09-07T07:26:28;95916.53;;;22.89;67.79
69570;BME280;56781;42.292;23.146;2023-09-07T07:28:55;95930.88;;;23.12;65.20
69570;BME280;56781;42.292;23.146;2023-09-07T07:31:22;95925.94;;;23.21;65.63
69570;BME280;56781;42.292;23.146;2023-09-07T07:33:49;95927.22;;;23.01;65.09
69570;BME280;56781;42.292;23.146;2023-09-07T07:36:16;95913.25;;;22.79;66.06
69570;BME280;56781;42.292;23.146;2023-09-07T07:38:43;95927.22;;;22.74;66.48
69570;BME280;56781;42.292;23.146;2023-09-07T07:41:11;95907.25;;;22.40;67.20
69570;BME280;56781;42.292;23.146;2023-09-07T07:43:38;95920.34;;;22.31;66.73
69570;BME280;56781;42.292;23.146;2023-09-07T07:46:05;95907.94;;;22.10;68.28
69570;BME280;56781;42.292;23.146;2023-09-07T07:48:32;95907.25;;;22.17;67.01
69570;BME280;56781;42.292;23.146;2023-09-07T07:51:03;95939.38;;;22.50;66.50
69570;BME280;56781;42.292;23.146;2023-09-07T07:53:34;95939.03;;;22.55;67.72
69570;BME280;56781;42.292;23.146;2023-09-07T07:56:01;95942.28;;;22.61;68.75
69570;BME280;56781;42.292;23.146;2023-09-07T07:58:30;95930.47;;;22.53;68.54
69570;BME280;56781;42.292;23.146;2023-09-07T08:00:57;95918.94;;;22.41;67.17
69570;BME280;56781;42.292;23.146;2023-09-07T08:03:25;95929.22;;;22.24;68.35
69570;BME280;56781;42.292;23.146;2023-09-07T08:05:53;95922.13;;;22.20;67.48
69570;BME280;56781;42.292;23.146;2023-09-07T08:08:19;95942.16;;;22.54;66.85
69570;BME280;56781;42.292;23.146;2023-09-07T08:10:47;95929.19;;;22.74;67.02
69570;BME280;56781;42.292;23.146;2023-09-07T08:13:14;95930.38;;;22.50;66.49
69570;BME280;56781;42.292;23.146;2023-09-07T08:15:41;95941.72;;;22.52;69.22
69570;BME280;56781;42.292;23.146;2023-09-07T08:18:08;95920.06;;;22.63;68.27
69570;BME280;56781;42.292;23.146;2023-09-07T08:20:36;95917.38;;;22.66;68.61
69570;BME280;56781;42.292;23.146;2023-09-07T08:23:05;95921.69;;;22.67;68.22
69570;BME280;56781;42.292;23.146;2023-09-07T08:25:34;95926.56;;;22.54;68.64
69570;BME280;56781;42.292;23.146;2023-09-07T08:28:02;95930.94;;;22.36;67.95
69570;BME280;56781;42.292;23.146;2023-09-07T08:30:33;95931.69;;;22.33;68.27
69570;BME280;56781;42.292;23.146;2023-09-07T08:33:01;95932.38;;;22.26;68.34
69570;BME280;56781;42.292;23.146;2023-09-07T08:35:29;95937.94;;;22.33;65.02
69570;BME280;56781;42.292;23.146;2023-09-07T08:37:57;95915.31;;;22.33;65.12
69570;BME280;56781;42.292;23.146;2023-09-07T08:40:26;95943.66;;;22.51;65.55
69570;BME280;56781;42.292;23.146;2023-09-07T08:42:54;95935.91;;;22.53;65.36
69570;BME280;56781;42.292;23.146;2023-09-07T08:45:22;95933.84;;;22.47;64.12
69570;BME280;56781;42.292;23.146;2023-09-07T08:47:53;95937.59;;;22.62;64.52
69570;BME280;56781;42.292;23.146;2023-09-07T08:50:21;95936.13;;;22.68;63.83
69570;BME280;56781;42.292;23.146;2023-09-07T08:52:54;95917.63;;;22.57;64.13
69570;BME280;56781;42.292;23.146;2023-09-07T08:55:21;95922.91;;;22.70;63.93
69570;BME280;56781;42.292;23.146;2023-09-07T08:57:49;95938.41;;;22.66;63.99
69570;BME280;56781;42.292;23.146;2023-09-07T09:00:17;95929.09;;;22.67;65.37
69570;BME280;56781;42.292;23.146;2023-09-07T09:02:47;95901.41;;;22.42;64.61
69570;BME280;56781;42.292;23.146;2023-09-07T09:05:19;95930.78;;;22.75;65.79
69570;BME280;56781;42.292;23.146;2023-09-07T09:07:46;95913.66;;;22.78;64.14
69570;BME280;56781;42.292;23.146;2023-09-07T09:10:13;95924.66;;;22.85;64.13
69570;BME280;56781;42.292;23.146;2023-09-07T09:12:46;95918.78;;;22.83;63.56
69570;BME280;56781;42.292;23.146;2023-09-07T09:15:15;95918.31;;;22.77;64.18
69570;BME280;56781;42.292;23.146;2023-09-07T09:17:42;95918.38;;;22.81;65.10
69570;BME280;56781;42.292;23.146;2023-09-07T09:20:25;95919.94;;;22.82;63.99
69570;BME280;56781;42.292;23.146;2023-09-07T09:22:54;95925.06;;;22.87;63.26
69570;BME280;56781;42.292;23.146;2023-09-07T09:25:22;95920.34;;;22.84;63.31
69570;BME280;56781;42.292;23.146;2023-09-07T09:27:49;95925.50;;;22.89;64.32
69570;BME280;56781;42.292;23.146;2023-09-07T09:30:16;95933.38;;;22.94;64.36
69570;BME280;56781;42.292;23.146;2023-09-07T09:32:43;95942.09;;;23.04;63.94
69570;BME280;56781;42.292;23.146;2023-09-07T09:35:10;95935.81;;;22.99;64.10
69570;BME280;56781;42.292;23.146;2023-09-07T09:37:47;95943.00;;;23.15;65.55
69570;BME280;56781;42.292;23.146;2023-09-07T09:40:18;95936.09;;;23.21;65.18
69570;BME280;56781;42.292;23.146;2023-09-07T09:42:45;95940.75;;;23.20;64.56
69570;BME280;56781;42.292;23.146;2023-09-07T09:45:13;95926.56;;;23.08;66.01
69570;BME280;56781;42.292;23.146;2023-09-07T09:47:41;95935.16;;;23.10;65.60
69570;BME280;56781;42.292;23.146;2023-09-07T09:50:10;95927.19;;;22.97;65.69
69570;BME280;56781;42.292;23.146;2023-09-07T09:52:38;95916.50;;;23.15;65.40
69570;BME280;56781;42.292;23.146;2023-09-07T09:55:06;95930.69;;;23.28;65.11
69570;BME280;56781;42.292;23.146;2023-09-07T09:57:35;95938.41;;;23.53;64.46
69570;BME280;56781;42.292;23.146;2023-09-07T10:00:04;95927.75;;;23.44;63.41
69570;BME280;56781;42.292;23.146;2023-09-07T10:02:46;95917.78;;;23.59;63.48
69570;BME280;56781;42.292;23.146;2023-09-07T10:05:15;95934.97;;;23.59;61.78
69570;BME280;56781;42.292;23.146;2023-09-07T10:07:43;95916.47;;;23.45;61.72
69570;BME280;56781;42.292;23.146;2023-09-07T10:10:17;95928.75;;;23.62;60.86
69570;BME280;56781;42.292;23.146;2023-09-07T10:12:50;95914.69;;;23.64;60.21
69570;BME280;56781;42.292;23.146;2023-09-07T10:15:25;95916.72;;;23.71;61.26
69570;BME280;56781;42.292;23.146;2023-09-07T10:18:06;95906.69;;;23.78;60.33
69570;BME280;56781;42.292;23.146;2023-09-07T10:20:50;95913.41;;;23.88;58.56
69570;BME280;56781;42.292;23.146;2023-09-07T10:23:19;95913.94;;;24.04;58.75
69570;BME280;56781;42.292;23.146;2023-09-07T10:25:51;95897.50;;;24.01;58.59
69570;BME280;56781;42.292;23.146;2023-09-07T10:28:23;95896.84;;;24.15;57.81
69570;BME280;56781;42.292;23.146;2023-09-07T10:31:12;95880.91;;;24.24;57.13
69570;BME280;56781;42.292;23.146;2023-09-07T10:33:40;95880.91;;;24.27;57.05
69570;BME280;56781;42.292;23.146;2023-09-07T10:36:07;95910.69;;;24.36;56.14
69570;BME280;56781;42.292;23.146;2023-09-07T10:38:35;95911.03;;;24.31;54.63
69570;BME280;56781;42.292;23.146;2023-09-07T10:41:04;95893.00;;;24.23;55.58
69570;BME280;56781;42.292;23.146;2023-09-07T10:43:33;95875.53;;;24.38;55.24
69570;BME280;56781;42.292;23.146;2023-09-07T10:46:01;95882.66;;;24.50;55.15
69570;BME280;56781;42.292;23.146;2023-09-07T10:48:29;95888.31;;;24.82;54.87
69570;BME280;56781;42.292;23.146;2023-09-07T10:50:57;95888.75;;;24.88;54.07
69570;BME280;56781;42.292;23.146;2023-09-07T10:53:27;95889.94;;;24.87;53.49
69570;BME280;56781;42.292;23.146;2023-09-07T10:55:58;95884.63;;;24.53;54.29
69570;BME280;56781;42.292;23.146;2023-09-07T10:58:26;95878.56;;;24.85;52.89
69570;BME280;56781;42.292;23.146;2023-09-07T11:00:57;95895.56;;;24.46;53.78
69570;BME280;56781;42.292;23.146;2023-09-07T11:03:25;95881.19;;;24.15;53.76
69570;BME280;56781;42.292;23.146;2023-09-07T11:06:16;95895.56;;;24.53;53.68
69570;BME280;56781;42.292;23.146;2023-09-07T11:08:49;95889.41;;;24.67;53.01
69570;BME280;56781;42.292;23.146;2023-09-07T11:11:16;95879.63;;;24.10;52.98
69570;BME280;56781;42.292;23.146;2023-09-07T11:13:44;95893.31;;;24.14;53.62
69570;BME280;56781;42.292;23.146;2023-09-07T11:16:11;95892.38;;;23.96;52.11
69570;BME280;56781;42.292;23.146;2023-09-07T11:18:38;95883.94;;;24.15;53.90
69570;BME280;56781;42.292;23.146;2023-09-07T11:21:07;95881.97;;;24.12;52.17
69570;BME280;56781;42.292;23.146;2023-09-07T11:23:34;95886.97;;;24.03;52.88
69570;BME280;56781;42.292;23.146;2023-09-07T11:26:05;95872.88;;;23.97;52.70
69570;BME280;56781;42.292;23.146;2023-09-07T11:28:33;95878.38;;;24.01;53.18
69570;BME280;56781;42.292;23.146;2023-09-07T11:31:00;95878.38;;;24.52;52.18
69570;BME280;56781;42.292;23.146;2023-09-07T11:33:33;95889.16;;;24.34;51.49
69570;BME280;56781;42.292;23.146;2023-09-07T11:36:00;95880.28;;;24.45;51.85
69570;BME280;56781;42.292;23.146;2023-09-07T11:38:36;95879.41;;;24.37;51.68
69570;BME280;56781;42.292;23.146;2023-09-07T11:41:04;95877.06;;;24.36;52.23
69570;BME280;56781;42.292;23.146;2023-09-07T11:43:31;95873.56;;;24.39;51.51
69570;BME280;56781;42.292;23.146;2023-09-07T11:46:00;95861.66;;;24.68;51.54
69570;BME280;56781;42.292;23.146;2023-09-07T11:48:28;95860.03;;;24.60;50.83
69570;BME280;56781;42.292;23.146;2023-09-07T11:50:56;95838.25;;;24.82;50.46
69570;BME280;56781;42.292;23.146;2023-09-07T11:53:23;95845.28;;;24.86;51.18
69570;BME280;56781;42.292;23.146;2023-09-07T11:55:50;95854.69;;;24.82;51.22
69570;BME280;56781;42.292;23.146;2023-09-07T11:58:17;95860.06;;;24.64;51.98
69570;BME280;56781;42.292;23.146;2023-09-07T12:00:44;95878.97;;;24.94;51.75
69570;BME280;56781;42.292;23.146;2023-09-07T12:03:11;95874.31;;;24.98;50.58
69570;BME280;56781;42.292;23.146;2023-09-07T12:05:39;95880.75;;;25.31;49.20
69570;BME280;56781;42.292;23.146;2023-09-07T12:08:08;95868.88;;;25.09;49.29
69570;BME280;56781;42.292;23.146;2023-09-07T12:10:35;95873.56;;;25.05;49.89
69570;BME280;56781;42.292;23.146;2023-09-07T12:13:02;95853.50;;;24.86;50.04
69570;BME280;56781;42.292;23.146;2023-09-07T12:15:29;95863.31;;;24.84;48.44
69570;BME280;56781;42.292;23.146;2023-09-07T12:17:56;95873.31;;;24.58;48.75
69570;BME280;56781;42.292;23.146;2023-09-07T12:20:24;95883.72;;;24.38;49.81
69570;BME280;56781;42.292;23.146;2023-09-07T12:22:51;95873.94;;;24.37;50.76
69570;BME280;56781;42.292;23.146;2023-09-07T12:25:18;95862.72;;;24.46;50.68
69570;BME280;56781;42.292;23.146;2023-09-07T12:27:45;95862.31;;;24.51;48.47
69570;BME280;56781;42.292;23.146;2023-09-07T12:30:18;95872.38;;;24.36;48.96
69570;BME280;56781;42.292;23.146;2023-09-07T12:32:48;95876.25;;;24.31;50.16
69570;BME280;56781;42.292;23.146;2023-09-07T12:35:15;95876.66;;;24.33;50.64
69570;BME280;56781;42.292;23.146;2023-09-07T12:37:43;95885.28;;;24.39;50.43
69570;BME280;56781;42.292;23.146;2023-09-07T12:40:10;95866.81;;;24.25;51.82
69570;BME280;56781;42.292;23.146;2023-09-07T12:42:43;95866.75;;;24.15;50.64
69570;BME280;56781;42.292;23.146;2023-09-07T12:45:11;95874.53;;;24.13;50.73
69570;BME280;56781;42.292;23.146;2023-09-07T12:47:39;95881.56;;;24.10;50.75
69570;BME280;56781;42.292;23.146;2023-09-07T12:50:07;95869.81;;;24.06;49.16
69570;BME280;56781;42.292;23.146;2023-09-07T12:52:34;95871.78;;;24.09;50.84
69570;BME280;56781;42.292;23.146;2023-09-07T12:55:06;95870.59;;;24.06;49.62